createdAt,value
2018-07-25T00:00:57.527Z,17.88
2018-07-25T00:01:57.522Z,17.88
2018-07-25T00:02:57.523Z,17.94
2018-07-25T00:03:57.509Z,17.81
2018-07-25T00:04:57.510Z,17.88
2018-07-25T00:05:57.505Z,17.95
2018-07-25T00:06:57.241Z,17.87
2018-07-25T00:07:57.247Z,17.84
2018-07-25T00:08:57.242Z,17.87
2018-07-25T00:09:57.236Z,17.83
2018-07-25T00:10:57.488Z,17.83
2018-07-25T00:11:57.506Z,17.86
2018-07-25T00:12:57.481Z,17.8
2018-07-25T00:13:57.483Z,17.8
2018-07-25T00:14:57.221Z,17.76
2018-07-25T00:15:57.223Z,17.8
2018-07-25T00:16:57.475Z,17.79
2018-07-25T00:17:57.470Z,17.76
2018-07-25T00:18:57.466Z,17.74
2018-07-25T00:19:57.463Z,17.73
2018-07-25T00:20:57.459Z,17.69
2018-07-25T00:21:56.947Z,17.69
2018-07-25T00:22:57.459Z,17.58
2018-07-25T00:23:57.459Z,17.52
2018-07-25T00:24:57.456Z,17.62
2018-07-25T00:25:57.453Z,17.6
2018-07-25T00:26:57.447Z,17.52
2018-07-25T00:27:57.447Z,17.47
2018-07-25T00:28:57.437Z,17.54
2018-07-25T00:29:57.442Z,17.57
2018-07-25T00:30:57.432Z,17.47
2018-07-25T00:31:57.430Z,17.39
2018-07-25T00:32:57.170Z,17.36
2018-07-25T00:33:57.172Z,17.3
2018-07-25T00:34:57.424Z,17.32
2018-07-25T00:35:57.160Z,17.24
2018-07-25T00:36:57.417Z,17.28
2018-07-25T00:37:57.159Z,17.25
2018-07-25T00:38:57.409Z,17.24
2018-07-25T00:39:57.408Z,17.22
2018-07-25T00:40:57.147Z,17.24
2018-07-25T00:41:57.408Z,17.21
2018-07-25T00:42:57.400Z,17.17
2018-07-25T00:43:57.396Z,17.18
2018-07-25T00:44:57.391Z,17.18
2018-07-25T00:45:57.387Z,17.13
2018-07-25T00:46:57.388Z,17.18
2018-07-25T00:47:57.384Z,17.1
2018-07-25T00:48:57.120Z,17.06
2018-07-25T00:49:57.405Z,17.06
2018-07-25T00:50:57.113Z,17.07
2018-07-25T00:51:57.371Z,17.07
2018-07-25T00:52:57.368Z,17.12
2018-07-25T00:53:57.360Z,17.06
2018-07-25T00:54:57.100Z,17.02
2018-07-25T00:55:57.357Z,17.07
2018-07-25T00:56:57.096Z,16.97
2018-07-25T00:57:57.093Z,16.94
2018-07-25T00:58:57.348Z,16.97
2018-07-25T00:59:57.085Z,16.95
2018-07-25T01:00:57.346Z,16.81
2018-07-25T01:01:57.339Z,16.88
2018-07-25T01:02:57.343Z,16.84
2018-07-25T01:03:57.327Z,16.81
2018-07-25T01:04:57.067Z,16.77
2018-07-25T01:05:57.322Z,16.73
2018-07-25T01:06:57.322Z,16.67
2018-07-25T01:07:57.312Z,16.69
2018-07-25T01:08:57.314Z,16.66
2018-07-25T01:09:57.307Z,16.66
2018-07-25T01:10:56.792Z,16.69
2018-07-25T01:11:57.298Z,16.66
2018-07-25T01:12:57.300Z,16.57
2018-07-25T01:13:57.295Z,16.59
2018-07-25T01:14:57.036Z,16.59
2018-07-25T01:15:57.285Z,16.52
2018-07-25T01:16:57.027Z,16.58
2018-07-25T01:17:57.277Z,16.51
2018-07-25T01:18:57.272Z,16.54
2018-07-25T01:19:57.296Z,16.44
2018-07-25T01:20:57.269Z,16.47
2018-07-25T01:21:57.005Z,16.45
2018-07-25T01:22:57.261Z,16.58
2018-07-25T01:23:57.265Z,16.51
2018-07-25T01:24:57.046Z,16.51
2018-07-25T01:25:57.246Z,16.49
2018-07-25T01:26:56.994Z,16.52
2018-07-25T01:27:56.985Z,16.49
2018-07-25T01:28:57.246Z,16.44
2018-07-25T01:29:56.978Z,16.47
2018-07-25T01:30:57.235Z,16.37
2018-07-25T01:31:56.715Z,16.39
2018-07-25T01:32:56.965Z,16.33
2018-07-25T01:33:56.961Z,16.34
2018-07-25T01:34:56.966Z,16.34
2018-07-25T01:35:56.958Z,16.34
2018-07-25T01:36:56.698Z,16.29
2018-07-25T01:37:56.948Z,16.29
2018-07-25T01:38:57.198Z,16.32
2018-07-25T01:39:57.203Z,16.33
2018-07-25T01:40:57.195Z,16.37
2018-07-25T01:41:56.931Z,16.26
2018-07-25T01:42:57.188Z,16.34
2018-07-25T01:43:57.188Z,16.39
2018-07-25T01:44:57.179Z,16.3
2018-07-25T01:45:56.918Z,16.21
2018-07-25T01:46:56.919Z,16.22
2018-07-25T01:47:56.911Z,16.27
2018-07-25T01:48:56.906Z,16.25
2018-07-25T01:49:56.909Z,16.21
2018-07-25T01:50:57.189Z,16.37
2018-07-25T01:51:57.159Z,16.27
2018-07-25T01:52:57.148Z,16.27
2018-07-25T01:53:56.884Z,16.22
2018-07-25T01:54:57.141Z,16.18
2018-07-25T01:55:57.135Z,16.16
2018-07-25T01:56:56.873Z,16.17
2018-07-25T01:57:57.127Z,16.25
2018-07-25T01:58:56.866Z,16.22
2018-07-25T01:59:56.867Z,16.16
2018-07-25T02:00:57.115Z,16.14
2018-07-25T02:01:56.854Z,16.22
2018-07-25T02:02:56.853Z,16.08
2018-07-25T02:03:56.848Z,16.1
2018-07-25T02:04:57.095Z,16.07
2018-07-25T02:05:57.096Z,16.13
2018-07-25T02:06:57.087Z,16
2018-07-25T02:07:56.828Z,16.06
2018-07-25T02:08:56.828Z,16.07
2018-07-25T02:09:56.822Z,16.02
2018-07-25T02:10:57.074Z,16.02
2018-07-25T02:11:57.080Z,15.96
2018-07-25T02:12:56.553Z,15.92
2018-07-25T02:13:57.065Z,15.92
2018-07-25T02:14:57.060Z,15.89
2018-07-25T02:15:57.061Z,15.86
2018-07-25T02:16:57.049Z,15.81
2018-07-25T02:17:57.046Z,15.93
2018-07-25T02:18:56.785Z,15.83
2018-07-25T02:19:57.040Z,15.86
2018-07-25T02:20:56.777Z,15.83
2018-07-25T02:21:56.518Z,15.89
2018-07-25T02:22:56.771Z,15.86
2018-07-25T02:23:56.763Z,15.86
2018-07-25T02:24:57.020Z,15.89
2018-07-25T02:25:57.010Z,15.74
2018-07-25T02:26:56.756Z,15.77
2018-07-25T02:27:57.001Z,15.89
2018-07-25T02:28:57.011Z,15.75
2018-07-25T02:29:56.735Z,15.83
2018-07-25T02:30:56.994Z,15.77
2018-07-25T02:31:56.734Z,15.75
2018-07-25T02:32:56.992Z,15.73
2018-07-25T02:33:56.978Z,15.74
2018-07-25T02:34:56.977Z,15.8
2018-07-25T02:35:56.982Z,15.7
2018-07-25T02:36:56.976Z,15.86
2018-07-25T02:37:56.972Z,15.74
2018-07-25T02:38:56.958Z,15.71
2018-07-25T02:39:56.952Z,15.83
2018-07-25T02:40:56.697Z,15.77
2018-07-25T02:41:56.948Z,15.7
2018-07-25T02:42:56.943Z,15.74
2018-07-25T02:43:57.270Z,15.75
2018-07-25T02:44:56.933Z,15.73
2018-07-25T02:45:56.922Z,15.74
2018-07-25T02:46:56.967Z,15.71
2018-07-25T02:47:56.917Z,15.71
2018-07-25T02:48:56.914Z,15.71
2018-07-25T02:49:56.913Z,15.6
2018-07-25T02:50:56.905Z,15.68
2018-07-25T02:51:56.386Z,15.68
2018-07-25T02:52:56.904Z,15.71
2018-07-25T02:53:56.895Z,15.68
2018-07-25T02:54:56.886Z,15.7
2018-07-25T02:55:56.624Z,15.65
2018-07-25T02:56:56.463Z,15.59
2018-07-25T02:57:56.871Z,15.63
2018-07-25T02:58:56.876Z,15.6
2018-07-25T02:59:56.866Z,15.58
2018-07-25T03:00:56.603Z,15.53
2018-07-25T03:01:56.598Z,15.58
2018-07-25T03:02:56.847Z,15.56
2018-07-25T03:03:56.848Z,15.58
2018-07-25T03:04:56.841Z,15.58
2018-07-25T03:05:56.839Z,15.58
2018-07-25T03:06:56.835Z,15.56
2018-07-25T03:07:56.830Z,15.56
2018-07-25T03:08:56.628Z,15.56
2018-07-25T03:09:56.817Z,15.6
2018-07-25T03:10:56.816Z,15.51
2018-07-25T03:11:56.552Z,15.55
2018-07-25T03:12:56.802Z,15.44
2018-07-25T03:13:56.813Z,15.51
2018-07-25T03:14:56.799Z,15.45
2018-07-25T03:15:56.799Z,15.53
2018-07-25T03:16:56.532Z,15.56
2018-07-25T03:17:56.536Z,15.51
2018-07-25T03:18:56.776Z,15.53
2018-07-25T03:19:56.791Z,15.47
2018-07-25T03:20:56.773Z,15.47
2018-07-25T03:21:56.510Z,15.44
2018-07-25T03:22:56.766Z,15.43
2018-07-25T03:23:56.757Z,15.41
2018-07-25T03:24:56.756Z,15.49
2018-07-25T03:25:56.745Z,15.43
2018-07-25T03:26:56.763Z,15.41
2018-07-25T03:27:56.737Z,15.43
2018-07-25T03:28:56.734Z,15.45
2018-07-25T03:29:56.728Z,15.52
2018-07-25T03:30:56.726Z,15.51
2018-07-25T03:31:56.730Z,15.51
2018-07-25T03:32:56.718Z,15.51
2018-07-25T03:33:56.705Z,15.47
2018-07-25T03:34:56.701Z,15.59
2018-07-25T03:35:56.712Z,15.6
2018-07-25T03:36:56.437Z,15.63
2018-07-25T03:37:56.689Z,15.63
2018-07-25T03:38:56.425Z,15.68
2018-07-25T03:39:56.425Z,15.63
2018-07-25T03:40:56.680Z,15.71
2018-07-25T03:41:56.414Z,15.7
2018-07-25T03:42:56.423Z,15.75
2018-07-25T03:43:56.665Z,15.73
2018-07-25T03:44:56.656Z,15.8
2018-07-25T03:45:56.655Z,15.84
2018-07-25T03:46:56.390Z,15.84
2018-07-25T03:47:56.644Z,15.92
2018-07-25T03:48:56.386Z,15.83
2018-07-25T03:49:56.644Z,15.81
2018-07-25T03:50:56.633Z,15.91
2018-07-25T03:51:56.368Z,15.96
2018-07-25T03:52:56.360Z,15.95
2018-07-25T03:53:56.617Z,15.88
2018-07-25T03:54:56.611Z,15.93
2018-07-25T03:55:56.608Z,15.99
2018-07-25T03:56:56.598Z,15.99
2018-07-25T03:57:56.598Z,15.96
2018-07-25T03:58:56.591Z,15.95
2018-07-25T03:59:56.589Z,15.95
2018-07-25T04:00:56.585Z,15.89
2018-07-25T04:01:56.441Z,16.02
2018-07-25T04:02:56.575Z,15.95
2018-07-25T04:03:56.571Z,16.04
2018-07-25T04:04:56.565Z,15.93
2018-07-25T04:05:56.568Z,15.96
2018-07-25T04:06:56.298Z,15.99
2018-07-25T04:07:56.294Z,16.02
2018-07-25T04:08:56.546Z,15.93
2018-07-25T04:09:56.286Z,15.95
2018-07-25T04:10:56.541Z,16.07
2018-07-25T04:11:56.540Z,16.02
2018-07-25T04:12:56.531Z,15.95
2018-07-25T04:13:56.266Z,15.95
2018-07-25T04:14:56.261Z,16.07
2018-07-25T04:15:56.517Z,16.07
2018-07-25T04:16:56.256Z,16.07
2018-07-25T04:17:56.510Z,16.13
2018-07-25T04:18:56.498Z,16.06
2018-07-25T04:19:56.502Z,16.11
2018-07-25T04:20:56.531Z,16.11
2018-07-25T04:21:56.489Z,16.16
2018-07-25T04:22:56.488Z,16.14
2018-07-25T04:23:56.481Z,16.18
2018-07-25T04:24:56.219Z,16.16
2018-07-25T04:25:56.467Z,16.17
2018-07-25T04:26:56.217Z,16.14
2018-07-25T04:27:55.952Z,16.25
2018-07-25T04:28:56.204Z,16.21
2018-07-25T04:29:56.195Z,16.21
2018-07-25T04:30:56.449Z,16.25
2018-07-25T04:31:56.444Z,16.25
2018-07-25T04:32:56.183Z,16.22
2018-07-25T04:33:56.183Z,16.25
2018-07-25T04:34:56.294Z,16.29
2018-07-25T04:35:56.170Z,16.3
2018-07-25T04:36:56.165Z,16.27
2018-07-25T04:37:56.418Z,16.34
2018-07-25T04:38:56.156Z,16.27
2018-07-25T04:39:56.411Z,16.26
2018-07-25T04:40:56.405Z,16.26
2018-07-25T04:41:55.887Z,16.3
2018-07-25T04:42:56.145Z,16.34
2018-07-25T04:43:56.138Z,16.32
2018-07-25T04:44:56.136Z,16.33
2018-07-25T04:45:55.874Z,16.44
2018-07-25T04:46:56.121Z,16.42
2018-07-25T04:47:56.127Z,16.48
2018-07-25T04:48:56.371Z,16.51
2018-07-25T04:49:56.371Z,16.49
2018-07-25T04:50:56.369Z,16.62
2018-07-25T04:51:56.359Z,16.62
2018-07-25T04:52:56.353Z,16.7
2018-07-25T04:53:56.093Z,16.7
2018-07-25T04:54:56.349Z,16.69
2018-07-25T04:55:56.348Z,16.73
2018-07-25T04:56:56.343Z,16.82
2018-07-25T04:57:56.339Z,16.76
2018-07-25T04:58:56.333Z,16.81
2018-07-25T04:59:56.069Z,16.81
2018-07-25T05:00:56.066Z,17
2018-07-25T05:01:56.062Z,16.88
2018-07-25T05:02:55.801Z,17
2018-07-25T05:03:56.063Z,17.07
2018-07-25T05:04:56.307Z,17.07
2018-07-25T05:05:56.304Z,17.1
2018-07-25T05:06:56.046Z,17.06
2018-07-25T05:07:56.042Z,17.15
2018-07-25T05:08:56.294Z,17.22
2018-07-25T05:09:56.038Z,17.27
2018-07-25T05:10:56.284Z,17.24
2018-07-25T05:11:56.022Z,17.43
2018-07-25T05:12:56.285Z,17.45
2018-07-25T05:13:56.272Z,17.55
2018-07-25T05:14:56.273Z,17.6
2018-07-25T05:15:55.755Z,17.55
2018-07-25T05:16:56.259Z,17.66
2018-07-25T05:17:56.135Z,17.65
2018-07-25T05:18:56.259Z,17.69
2018-07-25T05:19:56.253Z,17.68
2018-07-25T05:20:56.248Z,17.77
2018-07-25T05:21:55.989Z,17.77
2018-07-25T05:22:56.241Z,17.87
2018-07-25T05:23:55.982Z,17.84
2018-07-25T05:24:56.240Z,17.88
2018-07-25T05:25:56.239Z,17.99
2018-07-25T05:26:56.236Z,17.96
2018-07-25T05:27:56.225Z,17.98
2018-07-25T05:28:55.970Z,18.08
2018-07-25T05:29:56.219Z,18.02
2018-07-25T05:30:56.218Z,18.05
2018-07-25T05:31:55.962Z,18.14
2018-07-25T05:32:56.219Z,18.21
2018-07-25T05:33:55.958Z,18.35
2018-07-25T05:34:55.953Z,18.23
2018-07-25T05:35:56.200Z,18.32
2018-07-25T05:36:56.199Z,18.2
2018-07-25T05:37:55.946Z,18.26
2018-07-25T05:38:55.939Z,18.38
2018-07-25T05:39:56.192Z,18.36
2018-07-25T05:40:56.190Z,18.45
2018-07-25T05:41:56.187Z,18.47
2018-07-25T05:42:55.928Z,18.56
2018-07-25T05:43:56.091Z,18.63
2018-07-25T05:44:56.188Z,18.69
2018-07-25T05:45:56.178Z,18.59
2018-07-25T05:46:56.179Z,18.65
2018-07-25T05:47:55.917Z,18.76
2018-07-25T05:48:56.164Z,18.81
2018-07-25T05:49:56.167Z,18.76
2018-07-25T05:50:55.649Z,18.84
2018-07-25T05:51:56.158Z,18.91
2018-07-25T05:52:56.161Z,18.89
2018-07-25T05:53:56.159Z,19.02
2018-07-25T05:54:56.149Z,18.94
2018-07-25T05:55:56.151Z,18.99
2018-07-25T05:56:56.272Z,19.12
2018-07-25T05:57:56.145Z,19.2
2018-07-25T05:58:56.160Z,19.19
2018-07-25T05:59:55.881Z,19.24
2018-07-25T06:00:56.139Z,19.28
2018-07-25T06:01:55.884Z,19.31
2018-07-25T06:02:56.061Z,19.32
2018-07-25T06:03:55.877Z,19.43
2018-07-25T06:04:56.132Z,19.46
2018-07-25T06:05:56.438Z,19.5
2018-07-25T06:06:56.124Z,19.5
2018-07-25T06:07:56.123Z,19.55
2018-07-25T06:08:56.130Z,19.63
2018-07-25T06:09:55.860Z,19.75
2018-07-25T06:10:56.138Z,19.71
2018-07-25T06:11:56.122Z,19.8
2018-07-25T06:12:56.389Z,19.87
2018-07-25T06:13:55.853Z,19.83
2018-07-25T06:14:56.118Z,19.97
2018-07-25T06:15:55.852Z,20
2018-07-25T06:16:56.105Z,20.01
2018-07-25T06:17:56.102Z,20.04
2018-07-25T06:18:55.846Z,20.04
2018-07-25T06:19:56.103Z,20.08
2018-07-25T06:20:56.099Z,20.11
2018-07-25T06:21:56.104Z,20.15
2018-07-25T06:22:56.096Z,20.26
2018-07-25T06:23:56.092Z,20.25
2018-07-25T06:24:56.091Z,20.32
2018-07-25T06:25:56.248Z,20.37
2018-07-25T06:26:56.085Z,20.49
2018-07-25T06:27:56.086Z,20.54
2018-07-25T06:28:56.087Z,20.61
2018-07-25T06:29:56.089Z,20.66
2018-07-25T06:30:56.137Z,20.74
2018-07-25T06:31:55.828Z,20.79
2018-07-25T06:32:56.079Z,20.88
2018-07-25T06:33:55.567Z,20.94
2018-07-25T06:34:56.320Z,21.04
2018-07-25T06:35:56.080Z,21.15
2018-07-25T06:36:56.085Z,21.13
2018-07-25T06:37:55.914Z,21.18
2018-07-25T06:38:56.072Z,21.31
2018-07-25T06:39:56.069Z,21.27
2018-07-25T06:40:56.072Z,21.33
2018-07-25T06:41:56.074Z,21.43
2018-07-25T06:42:56.088Z,21.46
2018-07-25T06:43:56.069Z,21.53
2018-07-25T06:44:56.068Z,21.59
2018-07-25T06:45:55.810Z,21.74
2018-07-25T06:46:56.066Z,21.89
2018-07-25T06:47:56.075Z,22.05
2018-07-25T06:48:55.818Z,22.18
2018-07-25T06:49:55.821Z,22.36
2018-07-25T06:50:56.197Z,22.61
2018-07-25T06:51:55.820Z,23.03
2018-07-25T06:52:55.807Z,23.47
2018-07-25T06:53:56.066Z,24.03
2018-07-25T06:54:56.069Z,24.51
2018-07-25T06:55:55.803Z,24.92
2018-07-25T06:56:55.549Z,25.56
2018-07-25T06:57:55.811Z,26.24
2018-07-25T06:58:56.079Z,27.15
2018-07-25T06:59:55.811Z,27.96
2018-07-25T07:00:55.813Z,28.46
2018-07-25T07:01:55.812Z,29.02
2018-07-25T07:02:56.077Z,29.57
2018-07-25T07:03:56.077Z,30.09
2018-07-25T07:04:56.083Z,30.6
2018-07-25T07:05:55.824Z,31.26
2018-07-25T07:06:55.898Z,31.77
2018-07-25T07:07:55.837Z,32.27
2018-07-25T07:08:55.833Z,32.62
2018-07-25T07:09:55.842Z,32.68
2018-07-25T07:10:56.105Z,32.9
2018-07-25T07:11:55.847Z,33.23
2018-07-25T07:12:56.108Z,33.65
2018-07-25T07:13:55.861Z,33.99
2018-07-25T07:14:56.119Z,34.17
2018-07-25T07:15:56.125Z,34.18
2018-07-25T07:16:56.134Z,34.26
2018-07-25T07:17:56.136Z,34.43
2018-07-25T07:18:55.883Z,34.71
2018-07-25T07:19:56.160Z,35.04
2018-07-25T07:20:56.161Z,35.27
2018-07-25T07:21:56.165Z,35.47
2018-07-25T07:22:56.168Z,35.69
2018-07-25T07:23:56.227Z,35.79
2018-07-25T07:24:55.672Z,35.9
2018-07-25T07:25:56.119Z,36.15
2018-07-25T07:26:55.942Z,36.33
2018-07-25T07:27:56.210Z,36.51
2018-07-25T07:28:56.215Z,36.7
2018-07-25T07:29:55.971Z,36.73
2018-07-25T07:30:55.977Z,36.88
2018-07-25T07:31:55.984Z,36.89
2018-07-25T07:32:56.399Z,36.93
2018-07-25T07:33:56.005Z,36.93
2018-07-25T07:34:56.322Z,36.89
2018-07-25T07:35:56.283Z,36.95
2018-07-25T07:36:56.296Z,36.97
2018-07-25T07:37:56.481Z,36.99
2018-07-25T07:38:56.316Z,36.92
2018-07-25T07:39:56.318Z,36.88
2018-07-25T07:40:56.331Z,36.88
2018-07-25T07:41:56.340Z,36.67
2018-07-25T07:42:56.094Z,36.44
2018-07-25T07:43:56.367Z,36.06
2018-07-25T07:44:56.368Z,36.01
2018-07-25T07:45:56.118Z,35.95
2018-07-25T07:46:56.388Z,36.02
2018-07-25T07:47:56.137Z,36.09
2018-07-25T07:48:56.417Z,36.39
2018-07-25T07:49:56.159Z,36.46
2018-07-25T07:50:56.429Z,36.39
2018-07-25T07:51:55.927Z,36.53
2018-07-25T07:52:55.938Z,36.49
2018-07-25T07:53:56.605Z,36.51
2018-07-25T07:54:56.212Z,36.49
2018-07-25T07:55:56.221Z,36.26
2018-07-25T07:56:56.528Z,35.96
2018-07-25T07:57:55.986Z,35.92
2018-07-25T07:58:56.512Z,35.79
2018-07-25T07:59:56.529Z,35.77
2018-07-25T08:00:56.533Z,35.94
2018-07-25T08:01:56.027Z,35.96
2018-07-25T08:02:56.291Z,35.94
2018-07-25T08:03:56.560Z,35.82
2018-07-25T08:04:56.753Z,35.95
2018-07-25T08:05:56.582Z,35.99
2018-07-25T08:06:56.590Z,35.83
2018-07-25T08:07:56.599Z,35.74
2018-07-25T08:08:56.599Z,35.64
2018-07-25T08:09:56.608Z,35.47
2018-07-25T08:10:56.618Z,35.43
2018-07-25T08:11:56.640Z,35.27
2018-07-25T08:12:56.649Z,35.02
2018-07-25T08:13:56.644Z,34.64
2018-07-25T08:14:56.656Z,34.06
2018-07-25T08:15:56.663Z,33.16
2018-07-25T08:16:56.670Z,32.38
2018-07-25T08:17:56.470Z,31.9
2018-07-25T08:18:56.430Z,31.58
2018-07-25T08:19:56.440Z,31.26
2018-07-25T08:20:56.193Z,31
2018-07-25T08:21:56.718Z,30.77
2018-07-25T08:22:56.717Z,30.67
2018-07-25T08:23:56.721Z,30.56
2018-07-25T08:24:56.738Z,30.57
2018-07-25T08:25:56.739Z,30.35
2018-07-25T08:26:56.751Z,30.26
2018-07-25T08:27:56.755Z,30.31
2018-07-25T08:28:56.501Z,30.16
2018-07-25T08:29:56.253Z,30.06
2018-07-25T08:30:56.521Z,30.02
2018-07-25T08:31:56.782Z,29.89
2018-07-25T08:32:56.841Z,29.89
2018-07-25T08:33:56.796Z,29.79
2018-07-25T08:34:57.163Z,29.61
2018-07-25T08:35:56.549Z,29.57
2018-07-25T08:36:56.301Z,29.35
2018-07-25T08:37:56.560Z,29.23
2018-07-25T08:38:56.830Z,29.05
2018-07-25T08:39:56.831Z,29.03
2018-07-25T08:40:56.842Z,29.1
2018-07-25T08:41:56.846Z,29.03
2018-07-25T08:42:56.338Z,29.11
2018-07-25T08:43:56.352Z,29.05
2018-07-25T08:44:56.605Z,29.01
2018-07-25T08:45:56.870Z,28.91
2018-07-25T08:46:56.728Z,28.91
2018-07-25T08:47:56.882Z,28.85
2018-07-25T08:48:56.883Z,28.65
2018-07-25T08:49:56.636Z,28.43
2018-07-25T08:50:56.645Z,28.12
2018-07-25T08:51:56.389Z,27.9
2018-07-25T08:52:56.846Z,27.75
2018-07-25T08:53:56.662Z,27.79
2018-07-25T08:54:56.930Z,27.68
2018-07-25T08:55:56.927Z,27.79
2018-07-25T08:56:56.927Z,27.86
2018-07-25T08:57:56.827Z,27.96
2018-07-25T08:58:56.686Z,28.21
2018-07-25T08:59:56.696Z,28.12
2018-07-25T09:00:56.946Z,27.96
2018-07-25T09:01:57.325Z,27.99
2018-07-25T09:02:56.957Z,28.17
2018-07-25T09:03:56.963Z,28.14
2018-07-25T09:04:56.978Z,28.23
2018-07-25T09:05:56.975Z,28.33
2018-07-25T09:06:56.724Z,28.41
2018-07-25T09:07:56.723Z,28.49
2018-07-25T09:08:56.987Z,28.51
2018-07-25T09:09:57.000Z,28.67
2018-07-25T09:10:56.996Z,28.68
2018-07-25T09:11:56.748Z,28.79
2018-07-25T09:12:56.812Z,28.97
2018-07-25T09:13:57.012Z,29.06
2018-07-25T09:14:57.015Z,29.06
2018-07-25T09:15:57.019Z,28.95
2018-07-25T09:16:56.918Z,28.9
2018-07-25T09:17:57.043Z,28.92
2018-07-25T09:18:57.080Z,28.8
2018-07-25T09:19:57.233Z,28.75
2018-07-25T09:20:57.046Z,28.54
2018-07-25T09:21:56.792Z,28.42
2018-07-25T09:22:56.844Z,28.36
2018-07-25T09:23:57.062Z,28.39
2018-07-25T09:24:57.065Z,28.45
2018-07-25T09:25:57.122Z,28.55
2018-07-25T09:26:57.092Z,28.57
2018-07-25T09:27:57.111Z,28.83
2018-07-25T09:28:57.099Z,28.8
2018-07-25T09:29:56.834Z,28.76
2018-07-25T09:30:57.111Z,28.64
2018-07-25T09:31:56.582Z,28.54
2018-07-25T09:32:57.582Z,28.6
2018-07-25T09:33:56.936Z,28.57
2018-07-25T09:34:57.127Z,28.65
2018-07-25T09:35:57.134Z,28.65
2018-07-25T09:36:56.881Z,28.78
2018-07-25T09:37:57.156Z,28.92
2018-07-25T09:38:57.195Z,29.23
2018-07-25T09:39:56.902Z,29.35
2018-07-25T09:40:58.388Z,29.5
2018-07-25T09:41:57.185Z,29.4
2018-07-25T09:42:57.197Z,29.42
2018-07-25T09:43:56.645Z,29.13
2018-07-25T09:44:57.243Z,28.95
2018-07-25T09:45:56.928Z,28.79
2018-07-25T09:46:57.436Z,28.67
2018-07-25T09:47:58.275Z,28.43
2018-07-25T09:48:56.939Z,28.38
2018-07-25T09:49:56.961Z,28.2
2018-07-25T09:50:56.953Z,27.93
2018-07-25T09:51:57.214Z,27.83
2018-07-25T09:52:57.503Z,27.76
2018-07-25T09:53:57.256Z,27.81
2018-07-25T09:54:58.150Z,28.11
2018-07-25T09:55:57.251Z,28.3
2018-07-25T09:56:57.257Z,28.42
2018-07-25T09:57:57.288Z,28.72
2018-07-25T09:58:57.396Z,28.75
2018-07-25T09:59:57.250Z,28.8
2018-07-25T10:00:57.445Z,28.78
2018-07-25T10:01:57.008Z,28.86
2018-07-25T10:02:57.924Z,28.78
2018-07-25T10:03:57.000Z,28.82
2018-07-25T10:04:57.304Z,28.86
2018-07-25T10:05:57.037Z,28.92
2018-07-25T10:06:57.094Z,28.8
2018-07-25T10:07:57.035Z,28.6
2018-07-25T10:08:57.048Z,28.36
2018-07-25T10:09:57.693Z,28.21
2018-07-25T10:10:57.030Z,27.99
2018-07-25T10:11:57.051Z,27.8
2018-07-25T10:12:57.368Z,27.81
2018-07-25T10:13:57.054Z,27.91
2018-07-25T10:14:57.478Z,27.84
2018-07-25T10:15:57.071Z,28.01
2018-07-25T10:16:57.398Z,28.02
2018-07-25T10:17:57.975Z,28.21
2018-07-25T10:18:57.350Z,28.46
2018-07-25T10:19:56.814Z,28.65
2018-07-25T10:20:57.707Z,29.01
2018-07-25T10:21:57.376Z,29.26
2018-07-25T10:22:57.465Z,29.18
2018-07-25T10:23:57.390Z,29.06
2018-07-25T10:24:57.624Z,28.9
2018-07-25T10:25:57.148Z,28.79
2018-07-25T10:26:57.168Z,28.55
2018-07-25T10:27:57.417Z,28.48
2018-07-25T10:28:57.381Z,28.21
2018-07-25T10:29:57.139Z,28.09
2018-07-25T10:30:57.137Z,28.11
2018-07-25T10:31:57.636Z,28.27
2018-07-25T10:32:58.292Z,28.41
2018-07-25T10:33:57.168Z,28.67
2018-07-25T10:34:57.427Z,28.8
2018-07-25T10:35:57.418Z,29.01
2018-07-25T10:36:56.891Z,29.15
2018-07-25T10:37:57.446Z,29.29
2018-07-25T10:38:57.624Z,29.39
2018-07-25T10:39:58.370Z,29.61
2018-07-25T10:40:57.464Z,29.77
2018-07-25T10:41:57.185Z,29.82
2018-07-25T10:42:57.192Z,29.88
2018-07-25T10:43:57.463Z,29.84
2018-07-25T10:44:57.480Z,29.94
2018-07-25T10:45:58.057Z,29.95
2018-07-25T10:46:57.212Z,30
2018-07-25T10:47:58.037Z,30.03
2018-07-25T10:48:57.807Z,30.07
2018-07-25T10:49:57.491Z,29.94
2018-07-25T10:50:57.498Z,29.73
2018-07-25T10:51:57.504Z,29.61
2018-07-25T10:52:57.511Z,29.43
2018-07-25T10:53:57.521Z,29.58
2018-07-25T10:54:57.668Z,29.7
2018-07-25T10:55:57.830Z,29.89
2018-07-25T10:56:57.537Z,29.89
2018-07-25T10:57:57.527Z,29.75
2018-07-25T10:58:57.285Z,29.77
2018-07-25T10:59:57.282Z,29.61
2018-07-25T11:00:57.576Z,29.32
2018-07-25T11:01:57.562Z,29.11
2018-07-25T11:02:58.159Z,28.98
2018-07-25T11:03:57.740Z,28.76
2018-07-25T11:04:57.606Z,28.7
2018-07-25T11:05:57.333Z,28.6
2018-07-25T11:06:57.611Z,28.51
2018-07-25T11:07:57.616Z,28.48
2018-07-25T11:08:57.595Z,28.6
2018-07-25T11:09:58.434Z,28.58
2018-07-25T11:10:57.589Z,28.68
2018-07-25T11:11:57.606Z,28.82
2018-07-25T11:12:57.344Z,28.94
2018-07-25T11:13:57.626Z,29.11
2018-07-25T11:14:57.623Z,29.3
2018-07-25T11:15:57.631Z,29.43
2018-07-25T11:16:57.645Z,29.54
2018-07-25T11:17:57.642Z,29.52
2018-07-25T11:18:58.666Z,29.63
2018-07-25T11:19:57.386Z,29.72
2018-07-25T11:20:57.653Z,29.79
2018-07-25T11:21:57.406Z,29.81
2018-07-25T11:22:57.909Z,29.92
2018-07-25T11:23:57.415Z,29.87
2018-07-25T11:24:57.679Z,29.91
2018-07-25T11:25:57.728Z,29.92
2018-07-25T11:26:57.418Z,29.87
2018-07-25T11:27:57.437Z,29.82
2018-07-25T11:28:57.687Z,29.84
2018-07-25T11:29:57.688Z,29.82
2018-07-25T11:30:57.703Z,29.73
2018-07-25T11:31:57.698Z,29.7
2018-07-25T11:32:58.011Z,29.79
2018-07-25T11:33:57.451Z,29.73
2018-07-25T11:34:57.467Z,29.77
2018-07-25T11:35:57.464Z,29.55
2018-07-25T11:36:57.728Z,29.39
2018-07-25T11:37:57.474Z,29.39
2018-07-25T11:38:57.772Z,29.38
2018-07-25T11:39:57.487Z,29.36
2018-07-25T11:40:57.754Z,29.32
2018-07-25T11:41:57.242Z,29.4
2018-07-25T11:42:57.762Z,29.58
2018-07-25T11:43:57.768Z,29.7
2018-07-25T11:44:57.511Z,29.76
2018-07-25T11:45:57.774Z,29.81
2018-07-25T11:46:57.527Z,29.85
2018-07-25T11:47:57.811Z,30.06
2018-07-25T11:48:57.543Z,30.03
2018-07-25T11:49:57.601Z,30.14
2018-07-25T11:50:57.548Z,30.18
2018-07-25T11:51:57.809Z,30.07
2018-07-25T11:52:57.816Z,30.02
2018-07-25T11:53:57.567Z,29.88
2018-07-25T11:54:57.577Z,29.65
2018-07-25T11:55:57.837Z,29.32
2018-07-25T11:56:57.840Z,29.08
2018-07-25T11:57:57.593Z,28.78
2018-07-25T11:58:57.858Z,28.64
2018-07-25T11:59:57.613Z,28.58
2018-07-25T12:00:57.872Z,28.73
2018-07-25T12:01:57.869Z,28.78
2018-07-25T12:02:57.871Z,28.92
2018-07-25T12:03:57.876Z,28.98
2018-07-25T12:04:57.889Z,29.14
2018-07-25T12:05:58.601Z,29.36
2018-07-25T12:06:57.951Z,29.45
2018-07-25T12:07:57.666Z,29.51
2018-07-25T12:08:57.973Z,29.65
2018-07-25T12:09:57.672Z,29.57
2018-07-25T12:10:57.973Z,29.43
2018-07-25T12:11:57.686Z,29.43
2018-07-25T12:12:57.417Z,29.61
2018-07-25T12:13:57.983Z,29.57
2018-07-25T12:14:57.963Z,29.69
2018-07-25T12:15:57.698Z,29.67
2018-07-25T12:16:57.996Z,29.6
2018-07-25T12:17:57.700Z,29.58
2018-07-25T12:18:57.999Z,29.48
2018-07-25T12:19:57.739Z,29.35
2018-07-25T12:20:58.615Z,29.2
2018-07-25T12:21:58.010Z,29.06
2018-07-25T12:22:58.009Z,28.95
2018-07-25T12:23:57.763Z,28.95
2018-07-25T12:24:58.032Z,28.88
2018-07-25T12:25:57.754Z,28.85
2018-07-25T12:26:57.884Z,28.75
2018-07-25T12:27:58.339Z,28.7
2018-07-25T12:28:57.501Z,28.57
2018-07-25T12:29:58.047Z,28.54
2018-07-25T12:30:58.080Z,28.51
2018-07-25T12:31:58.110Z,28.7
2018-07-25T12:32:58.071Z,28.85
2018-07-25T12:33:58.082Z,28.94
2018-07-25T12:34:59.042Z,29.05
2018-07-25T12:35:58.066Z,28.97
2018-07-25T12:36:57.948Z,28.98
2018-07-25T12:37:58.103Z,28.91
2018-07-25T12:38:58.100Z,28.83
2018-07-25T12:39:58.105Z,28.8
2018-07-25T12:40:58.100Z,28.82
2018-07-25T12:41:58.659Z,28.86
2018-07-25T12:42:58.451Z,28.9
2018-07-25T12:43:58.110Z,28.95
2018-07-25T12:44:58.129Z,29.01
2018-07-25T12:45:57.858Z,28.98
2018-07-25T12:46:58.141Z,29.08
2018-07-25T12:47:58.136Z,29.05
2018-07-25T12:48:58.146Z,29.15
2018-07-25T12:49:58.585Z,29.33
2018-07-25T12:50:57.887Z,29.43
2018-07-25T12:51:58.172Z,29.51
2018-07-25T12:52:58.193Z,29.57
2018-07-25T12:53:58.509Z,29.57
2018-07-25T12:54:58.178Z,29.57
2018-07-25T12:55:57.641Z,29.66